createdAt,value
2017-06-26T00:01:23.654Z,18.30
2017-06-26T00:03:51.969Z,18.50
2017-06-26T00:06:19.443Z,18.50
2017-06-26T00:08:47.049Z,18.30
2017-06-26T00:11:14.657Z,18.30
2017-06-26T00:13:42.181Z,18.30
2017-06-26T00:16:10.466Z,18.20
2017-06-26T00:18:37.964Z,18.20
2017-06-26T00:21:05.454Z,18.10
2017-06-26T00:23:32.939Z,18.10
2017-06-26T00:26:00.446Z,18.10
2017-06-26T00:28:27.937Z,18.10
2017-06-26T00:30:55.463Z,18.10
2017-06-26T00:33:22.946Z,18.10
2017-06-26T00:35:50.441Z,18.10
2017-06-26T00:38:17.945Z,18.00
2017-06-26T00:40:45.432Z,18.00
2017-06-26T00:43:13.692Z,18.00
2017-06-26T00:45:41.280Z,18.00
2017-06-26T00:48:09.533Z,17.90
2017-06-26T00:50:37.049Z,17.80
2017-06-26T00:53:04.553Z,17.70
2017-06-26T00:55:32.130Z,17.70
2017-06-26T00:58:00.421Z,17.50
2017-06-26T01:00:28.698Z,17.60
2017-06-26T01:02:56.994Z,17.60
2017-06-26T01:05:24.508Z,17.50
2017-06-26T01:07:52.021Z,17.60
2017-06-26T01:10:19.519Z,17.70
2017-06-26T01:12:47.100Z,17.80
2017-06-26T01:15:15.364Z,17.70
2017-06-26T01:17:42.862Z,17.70
2017-06-26T01:20:10.354Z,17.70
2017-06-26T01:22:37.847Z,17.70
2017-06-26T01:25:06.729Z,17.70
2017-06-26T01:27:34.224Z,17.70
2017-06-26T01:30:01.717Z,17.70
2017-06-26T01:32:29.238Z,17.60
2017-06-26T01:34:56.717Z,17.70
2017-06-26T01:37:24.247Z,17.80
2017-06-26T01:39:52.519Z,17.80
2017-06-26T01:42:20.006Z,17.80
2017-06-26T01:44:47.522Z,17.70
2017-06-26T01:47:15.010Z,17.60
2017-06-26T01:49:42.559Z,17.50
2017-06-26T01:52:10.158Z,17.50
2017-06-26T01:54:37.659Z,17.50
2017-06-26T01:57:05.192Z,17.50
2017-06-26T01:59:32.799Z,17.50
2017-06-26T02:02:01.087Z,17.50
2017-06-26T02:04:28.567Z,17.40
2017-06-26T02:06:56.101Z,17.40
2017-06-26T02:09:23.591Z,17.40
2017-06-26T02:11:51.079Z,17.30
2017-06-26T02:14:18.576Z,17.30
2017-06-26T02:16:46.070Z,17.20
2017-06-26T02:19:13.557Z,17.10
2017-06-26T02:21:41.074Z,17.10
2017-06-26T02:24:08.588Z,17.10
2017-06-26T02:26:36.062Z,17.00
2017-06-26T02:29:03.563Z,17.00
2017-06-26T02:31:31.090Z,16.90
2017-06-26T02:33:58.577Z,16.90
2017-06-26T02:36:26.095Z,16.90
2017-06-26T02:38:54.353Z,16.90
2017-06-26T02:41:22.608Z,16.90
2017-06-26T02:43:50.090Z,16.80
2017-06-26T02:46:18.355Z,16.80
2017-06-26T02:48:45.897Z,16.90
2017-06-26T02:51:14.039Z,16.90
2017-06-26T02:53:41.522Z,17.00
2017-06-26T02:56:09.053Z,17.10
2017-06-26T02:58:36.551Z,17.10
2017-06-26T03:01:04.822Z,17.20
2017-06-26T03:03:32.334Z,17.10
2017-06-26T03:05:59.825Z,17.20
2017-06-26T03:08:27.323Z,17.20
2017-06-26T03:10:54.807Z,17.30
2017-06-26T03:13:22.306Z,17.30
2017-06-26T03:15:49.822Z,17.30
2017-06-26T03:18:17.383Z,17.30
2017-06-26T03:20:44.913Z,17.30
2017-06-26T03:23:12.418Z,17.30
2017-06-26T03:25:39.898Z,17.30
2017-06-26T03:28:07.378Z,17.30
2017-06-26T03:30:34.915Z,17.30
2017-06-26T03:33:02.451Z,17.40
2017-06-26T03:35:30.003Z,17.40
2017-06-26T03:37:57.493Z,17.40
2017-06-26T03:40:24.996Z,17.40
2017-06-26T03:42:53.268Z,17.40
2017-06-26T03:45:20.966Z,17.40
2017-06-26T03:47:48.456Z,17.40
2017-06-26T03:50:15.974Z,17.40
2017-06-26T03:52:43.460Z,17.40
2017-06-26T03:55:10.958Z,17.50
2017-06-26T03:57:38.481Z,17.50
2017-06-26T04:00:07.152Z,17.60
2017-06-26T04:02:35.463Z,17.60
2017-06-26T04:05:02.957Z,17.50
2017-06-26T04:07:31.213Z,17.70
2017-06-26T04:09:58.719Z,17.60
2017-06-26T04:12:26.236Z,17.70
2017-06-26T04:14:53.778Z,17.80
2017-06-26T04:17:22.059Z,17.80
2017-06-26T04:19:49.574Z,17.80
2017-06-26T04:22:17.073Z,17.80
2017-06-26T04:24:44.555Z,17.90
2017-06-26T04:27:12.066Z,17.90
2017-06-26T04:29:39.572Z,18.00
2017-06-26T04:32:07.822Z,18.20
2017-06-26T04:34:35.325Z,18.20
2017-06-26T04:37:03.861Z,18.20
2017-06-26T04:39:31.343Z,18.20
2017-06-26T04:41:58.853Z,18.30
2017-06-26T04:44:26.359Z,18.40
2017-06-26T04:46:53.850Z,18.50
2017-06-26T04:49:21.334Z,18.50
2017-06-26T04:51:48.864Z,18.60
2017-06-26T04:54:16.346Z,18.70
2017-06-26T04:56:43.818Z,18.70
2017-06-26T04:59:11.338Z,18.80
2017-06-26T05:01:38.813Z,18.80
2017-06-26T05:04:06.307Z,18.90
2017-06-26T05:06:33.787Z,19.00
2017-06-26T05:09:01.307Z,19.10
2017-06-26T05:11:29.836Z,19.10
2017-06-26T05:13:57.366Z,19.30
2017-06-26T05:16:24.855Z,19.40
2017-06-26T05:18:52.377Z,19.40
2017-06-26T05:21:19.885Z,19.30
2017-06-26T05:23:47.369Z,19.10
2017-06-26T05:26:14.861Z,19.10
2017-06-26T05:28:42.380Z,19.10
2017-06-26T05:31:09.870Z,19.10
2017-06-26T05:33:37.367Z,19.20
2017-06-26T05:36:05.650Z,19.40
2017-06-26T05:38:33.894Z,19.60
2017-06-26T05:41:01.399Z,19.60
2017-06-26T05:43:28.891Z,19.90
2017-06-26T05:45:56.391Z,20.20
2017-06-26T05:48:24.695Z,20.50
2017-06-26T05:50:52.178Z,20.50
2017-06-26T05:53:19.665Z,20.80
2017-06-26T05:55:47.163Z,20.80
2017-06-26T05:58:14.680Z,20.70
2017-06-26T06:00:42.214Z,20.70
2017-06-26T06:03:09.705Z,20.60
2017-06-26T06:05:37.233Z,20.60
2017-06-26T06:08:04.748Z,20.60
2017-06-26T06:10:33.025Z,20.30
2017-06-26T06:13:01.304Z,20.20
2017-06-26T06:15:29.652Z,20.40
2017-06-26T06:17:57.132Z,20.40
2017-06-26T06:20:25.383Z,21.10
2017-06-26T06:22:52.911Z,21.10
2017-06-26T06:25:20.393Z,21.10
2017-06-26T06:27:47.897Z,21.30
2017-06-26T06:30:16.173Z,21.40
2017-06-26T06:32:44.432Z,21.50
2017-06-26T06:35:11.957Z,21.50
2017-06-26T06:37:39.466Z,21.40
2017-06-26T06:40:07.727Z,21.60
2017-06-26T06:42:35.223Z,21.50
2017-06-26T06:45:02.726Z,21.70
2017-06-26T06:47:30.229Z,22.00
2017-06-26T06:49:57.727Z,22.20
2017-06-26T06:52:25.477Z,22.00
2017-06-26T06:54:53.022Z,22.10
2017-06-26T06:57:20.541Z,22.10
2017-06-26T06:59:48.066Z,22.10
2017-06-26T07:02:15.579Z,22.40
2017-06-26T07:04:44.168Z,22.10
2017-06-26T07:07:11.705Z,22.10
2017-06-26T07:09:39.218Z,22.30
2017-06-26T07:12:06.747Z,22.30
2017-06-26T07:14:34.274Z,22.40
2017-06-26T07:17:01.798Z,22.70
2017-06-26T07:19:29.320Z,22.40
2017-06-26T07:21:57.600Z,21.80
2017-06-26T07:24:25.834Z,22.10
2017-06-26T07:26:53.368Z,22.00
2017-06-26T07:29:20.860Z,22.00
2017-06-26T07:31:48.450Z,22.00
2017-06-26T07:34:16.027Z,22.10
2017-06-26T07:36:43.658Z,22.20
2017-06-26T07:39:11.943Z,22.60
2017-06-26T07:41:40.198Z,22.50
2017-06-26T07:44:07.716Z,22.50
2017-06-26T07:46:35.238Z,22.70
2017-06-26T07:49:03.541Z,22.60
2017-06-26T07:51:31.033Z,22.60
2017-06-26T07:53:58.553Z,22.70
2017-06-26T07:56:26.067Z,22.90
2017-06-26T07:58:53.660Z,22.90
2017-06-26T08:01:21.940Z,23.80
2017-06-26T08:03:49.452Z,23.80
2017-06-26T08:06:16.953Z,23.90
2017-06-26T08:08:45.253Z,23.30
2017-06-26T08:11:12.764Z,23.30
2017-06-26T08:13:40.378Z,23.20
2017-06-26T08:16:07.931Z,23.40
2017-06-26T08:18:35.420Z,24.10
2017-06-26T08:21:02.935Z,24.00
2017-06-26T08:23:30.459Z,24.20
2017-06-26T08:25:57.951Z,24.30
2017-06-26T08:28:25.440Z,24.10
2017-06-26T08:30:52.962Z,24.10
2017-06-26T08:33:20.487Z,24.20
2017-06-26T08:35:47.995Z,23.90
2017-06-26T08:38:15.531Z,23.50
2017-06-26T08:40:43.805Z,23.90
2017-06-26T08:43:12.078Z,23.60
2017-06-26T08:45:39.586Z,23.60
2017-06-26T08:48:07.102Z,23.50
2017-06-26T08:50:35.346Z,24.20
2017-06-26T08:53:02.887Z,24.20
2017-06-26T08:55:30.368Z,24.50
2017-06-26T08:57:57.876Z,24.60
2017-06-26T09:00:25.400Z,24.90
2017-06-26T09:02:52.904Z,25.60
2017-06-26T09:05:20.393Z,24.90
2017-06-26T09:07:47.926Z,24.40
2017-06-26T09:10:15.409Z,23.60
2017-06-26T09:12:42.908Z,23.20
2017-06-26T09:15:11.188Z,22.60
2017-06-26T09:17:38.685Z,22.60
2017-06-26T09:20:06.218Z,22.20
2017-06-26T09:22:33.727Z,22.20
2017-06-26T09:25:01.254Z,21.90
2017-06-26T09:27:28.779Z,21.90
2017-06-26T09:29:57.055Z,21.80
2017-06-26T09:32:25.351Z,22.00
2017-06-26T09:34:52.863Z,22.00
2017-06-26T09:37:20.489Z,21.80
2017-06-26T09:39:48.000Z,22.00
2017-06-26T09:42:15.510Z,22.30
2017-06-26T09:44:43.572Z,22.20
2017-06-26T09:47:11.059Z,22.20
2017-06-26T09:49:38.598Z,22.00
2017-06-26T09:52:06.088Z,21.80
2017-06-26T09:54:34.161Z,21.60
2017-06-26T09:57:01.685Z,21.50
2017-06-26T09:59:29.254Z,21.20
2017-06-26T10:01:56.774Z,20.90
2017-06-26T10:04:24.272Z,21.00
2017-06-26T10:06:51.772Z,20.80
2017-06-26T10:09:19.293Z,20.70
2017-06-26T10:11:46.851Z,20.70
2017-06-26T10:14:14.365Z,20.50
2017-06-26T10:16:42.692Z,20.50
2017-06-26T10:19:10.213Z,20.50
2017-06-26T10:21:38.471Z,20.30
2017-06-26T10:24:06.772Z,20.20
2017-06-26T10:26:34.329Z,20.20
2017-06-26T10:29:01.839Z,20.20
2017-06-26T10:31:29.355Z,20.00
2017-06-26T10:33:56.883Z,19.90
2017-06-26T10:36:24.420Z,19.90
2017-06-26T10:38:52.004Z,19.80
2017-06-26T10:41:20.394Z,19.70
2017-06-26T10:43:48.667Z,19.90
2017-06-26T10:46:16.930Z,19.90
2017-06-26T10:48:44.478Z,19.90
2017-06-26T10:51:11.999Z,20.00
2017-06-26T10:53:39.503Z,20.10
2017-06-26T10:56:07.216Z,20.50
2017-06-26T10:58:34.891Z,20.00
2017-06-26T11:01:02.401Z,20.20
2017-06-26T11:03:30.730Z,20.70
2017-06-26T11:05:58.298Z,20.70
2017-06-26T11:08:25.824Z,21.40
2017-06-26T11:10:53.397Z,22.30
2017-06-26T11:13:20.945Z,22.50
2017-06-26T11:15:48.493Z,22.80
2017-06-26T11:18:16.010Z,22.20
2017-06-26T11:20:43.494Z,22.60
2017-06-26T11:23:11.772Z,22.10
2017-06-26T11:25:40.124Z,22.20
2017-06-26T11:28:07.633Z,22.20
2017-06-26T11:30:35.152Z,21.90
2017-06-26T11:33:02.679Z,22.00
2017-06-26T11:35:30.172Z,21.90
2017-06-26T11:37:57.671Z,21.80
2017-06-26T11:40:25.167Z,21.60
2017-06-26T11:42:52.652Z,21.20
2017-06-26T11:45:20.164Z,21.00
2017-06-26T11:47:47.672Z,20.70
2017-06-26T11:50:15.193Z,20.80
2017-06-26T11:52:42.741Z,20.90
2017-06-26T11:55:10.321Z,20.80
2017-06-26T11:57:37.833Z,20.70
2017-06-26T12:00:06.123Z,21.20
2017-06-26T12:02:33.655Z,21.10
2017-06-26T12:05:01.944Z,21.20
2017-06-26T12:07:30.223Z,21.20
2017-06-26T12:09:58.524Z,21.20
2017-06-26T12:12:26.088Z,21.30
2017-06-26T12:14:53.627Z,21.30
2017-06-26T12:17:21.154Z,21.70
2017-06-26T12:19:48.705Z,22.10
2017-06-26T12:22:16.223Z,22.40
2017-06-26T12:24:43.714Z,23.00
2017-06-26T12:27:11.285Z,24.20
2017-06-26T12:29:38.786Z,23.90
2017-06-26T12:32:06.307Z,25.50
2017-06-26T12:34:33.878Z,26.40
2017-06-26T12:37:01.374Z,26.90
2017-06-26T12:39:28.917Z,25.90
2017-06-26T12:41:56.435Z,25.30
2017-06-26T12:44:23.943Z,24.70
2017-06-26T12:46:51.470Z,25.40
2017-06-26T12:49:19.060Z,25.10
2017-06-26T12:51:46.618Z,24.30
2017-06-26T12:54:14.156Z,24.50
2017-06-26T12:56:42.429Z,24.20
2017-06-26T12:59:09.952Z,24.20
2017-06-26T13:01:37.593Z,24.00
2017-06-26T13:04:05.111Z,23.70
2017-06-26T13:06:33.378Z,23.80
2017-06-26T13:09:00.930Z,23.80
2017-06-26T13:11:28.554Z,23.90
2017-06-26T13:13:56.193Z,24.70
2017-06-26T13:16:23.730Z,25.20
2017-06-26T13:18:51.282Z,26.20
2017-06-26T13:21:19.032Z,26.90
2017-06-26T13:23:46.531Z,27.10
2017-06-26T13:26:14.815Z,28.20
2017-06-26T13:28:42.313Z,28.10
2017-06-26T13:31:09.800Z,28.90
2017-06-26T13:33:37.320Z,26.90
2017-06-26T13:36:04.831Z,25.70
2017-06-26T13:38:33.111Z,28.80
2017-06-26T13:41:01.407Z,29.00
2017-06-26T13:43:29.678Z,29.00
2017-06-26T13:45:57.209Z,29.20
2017-06-26T13:48:24.729Z,31.90
2017-06-26T13:50:52.249Z,33.80
2017-06-26T13:53:20.510Z,32.20
2017-06-26T13:55:48.763Z,30.10
2017-06-26T13:58:16.309Z,30.00
2017-06-26T14:03:17.688Z,27.80
2017-06-26T14:05:45.267Z,26.00
2017-06-26T14:08:12.768Z,25.80
2017-06-26T14:10:40.295Z,25.10
2017-06-26T14:13:08.599Z,24.70
2017-06-26T14:15:36.109Z,24.70
2017-06-26T14:18:03.627Z,24.80
2017-06-26T14:20:31.179Z,24.90
2017-06-26T14:22:58.686Z,24.50
2017-06-26T14:25:26.201Z,24.00
2017-06-26T14:27:53.728Z,23.70
2017-06-26T14:30:21.995Z,23.00
2017-06-26T14:32:49.606Z,23.00
2017-06-26T14:35:17.163Z,22.50
2017-06-26T14:37:44.663Z,22.80
2017-06-26T14:40:12.197Z,23.00
2017-06-26T14:42:39.738Z,22.60
2017-06-26T14:45:07.266Z,22.50
2017-06-26T14:47:34.869Z,22.50
2017-06-26T14:50:02.405Z,22.40
2017-06-26T14:52:29.915Z,22.50
2017-06-26T14:54:57.437Z,22.00
2017-06-26T14:57:25.102Z,22.00
2017-06-26T14:59:52.615Z,22.10
2017-06-26T15:02:21.434Z,22.40
2017-06-26T15:04:49.006Z,22.30
2017-06-26T15:07:16.555Z,22.00
2017-06-26T15:09:44.102Z,21.90
2017-06-26T15:12:12.355Z,21.80
2017-06-26T15:14:39.861Z,21.80
2017-06-26T15:17:07.374Z,21.90
2017-06-26T15:19:34.881Z,21.90
2017-06-26T15:22:02.396Z,21.70
2017-06-26T15:24:29.925Z,22.00
2017-06-26T15:26:57.432Z,21.90
2017-06-26T15:29:25.724Z,22.00
2017-06-26T15:31:53.228Z,22.00
2017-06-26T15:34:20.742Z,21.90
2017-06-26T15:36:48.276Z,22.10
2017-06-26T15:39:16.541Z,22.80
2017-06-26T15:41:44.077Z,22.70
2017-06-26T15:44:11.628Z,23.10
2017-06-26T15:46:39.122Z,23.40
2017-06-26T15:49:07.381Z,24.50
2017-06-26T15:51:34.907Z,24.50
2017-06-26T15:54:02.412Z,25.60
2017-06-26T15:56:29.978Z,25.40
2017-06-26T15:58:58.313Z,24.70
2017-06-26T16:01:25.822Z,24.60
2017-06-26T16:03:54.100Z,25.10
2017-06-26T16:06:22.451Z,25.00
2017-06-26T16:08:49.963Z,24.90
2017-06-26T16:11:17.460Z,25.10
2017-06-26T16:13:45.023Z,26.10
2017-06-26T16:16:12.574Z,26.40
2017-06-26T16:18:40.097Z,27.30
2017-06-26T16:21:07.647Z,27.70
2017-06-26T16:23:35.984Z,27.70
2017-06-26T16:26:03.507Z,27.60
2017-06-26T16:28:31.081Z,27.10
2017-06-26T16:30:58.592Z,28.30
2017-06-26T16:33:26.860Z,29.10
2017-06-26T16:35:55.183Z,28.60
2017-06-26T16:38:22.703Z,28.60
2017-06-26T16:40:50.213Z,27.30
2017-06-26T16:43:17.761Z,26.10
2017-06-26T16:45:45.276Z,26.20
2017-06-26T16:48:13.546Z,25.10
2017-06-26T16:50:41.834Z,26.10
2017-06-26T16:53:10.444Z,26.10
2017-06-26T16:55:37.954Z,26.10
2017-06-26T16:58:05.675Z,26.30
2017-06-26T17:00:33.308Z,26.70
2017-06-26T17:03:00.901Z,26.90
2017-06-26T17:05:28.450Z,28.30
2017-06-26T17:07:55.948Z,27.40
2017-06-26T17:10:23.480Z,26.50
2017-06-26T17:12:50.978Z,25.90
2017-06-26T17:15:18.487Z,25.70
2017-06-26T17:17:45.987Z,25.00
2017-06-26T17:20:13.519Z,25.70
2017-06-26T17:22:41.035Z,25.40
2017-06-26T17:25:09.308Z,27.00
2017-06-26T17:27:37.606Z,28.50
2017-06-26T17:30:05.099Z,28.40
2017-06-26T17:32:32.622Z,27.70
2017-06-26T17:35:00.921Z,25.50
2017-06-26T17:37:28.449Z,25.50
2017-06-26T17:39:55.962Z,23.80
2017-06-26T17:42:23.472Z,23.20
2017-06-26T17:44:50.986Z,22.90
2017-06-26T17:47:18.472Z,22.90
2017-06-26T17:49:46.754Z,22.90
2017-06-26T17:52:15.034Z,22.80
2017-06-26T17:54:43.749Z,22.60
2017-06-26T17:57:11.311Z,22.60
2017-06-26T17:59:38.851Z,22.60
2017-06-26T18:02:07.113Z,22.50
2017-06-26T18:04:35.407Z,22.00
2017-06-26T18:07:03.693Z,22.10
2017-06-26T18:09:31.202Z,22.00
2017-06-26T18:11:58.728Z,22.00
2017-06-26T18:14:26.265Z,21.70
2017-06-26T18:16:54.516Z,21.70
2017-06-26T18:19:22.790Z,22.00
2017-06-26T18:21:50.308Z,22.00
2017-06-26T18:24:17.865Z,23.20
2017-06-26T18:26:45.616Z,22.80
2017-06-26T18:29:13.130Z,21.90
2017-06-26T18:31:40.670Z,21.40
2017-06-26T18:34:08.183Z,21.00
2017-06-26T18:36:36.013Z,21.00
2017-06-26T18:39:04.768Z,21.10
2017-06-26T18:41:32.266Z,20.90
2017-06-26T18:44:00.552Z,21.00
2017-06-26T18:46:28.866Z,21.00
2017-06-26T18:48:58.631Z,21.00
2017-06-26T18:51:26.956Z,20.90
2017-06-26T18:53:54.488Z,20.90
2017-06-26T18:56:22.765Z,20.50
2017-06-26T18:58:50.371Z,20.50
2017-06-26T19:01:17.878Z,20.50
2017-06-26T19:03:46.202Z,20.40
2017-06-26T19:06:13.835Z,20.40
2017-06-26T19:08:41.337Z,20.20
2017-06-26T19:11:08.847Z,19.90
2017-06-26T19:13:37.228Z,19.70
2017-06-26T19:16:04.782Z,19.60
2017-06-26T19:18:32.336Z,19.50
2017-06-26T19:21:00.771Z,19.40
2017-06-26T19:23:28.268Z,19.30
2017-06-26T19:25:55.787Z,19.20
2017-06-26T19:28:23.327Z,19.20
2017-06-26T19:30:50.889Z,19.10
2017-06-26T19:33:18.386Z,19.00
2017-06-26T19:35:45.926Z,18.90
2017-06-26T19:38:13.457Z,18.70
2017-06-26T19:40:41.332Z,18.70
2017-06-26T19:43:08.872Z,18.70
2017-06-26T19:45:36.385Z,18.60
2017-06-26T19:48:04.877Z,18.50
2017-06-26T19:50:32.502Z,18.40
2017-06-26T19:53:00.007Z,18.40
2017-06-26T19:55:27.499Z,18.50
2017-06-26T19:57:55.048Z,18.40
2017-06-26T20:00:23.287Z,18.30
2017-06-26T20:02:50.806Z,18.30
2017-06-26T20:05:18.325Z,18.20
2017-06-26T20:07:45.819Z,18.10
2017-06-26T20:10:13.338Z,18.00
2017-06-26T20:12:41.637Z,17.70
2017-06-26T20:15:09.131Z,17.70
2017-06-26T20:17:36.662Z,17.70
2017-06-26T20:20:04.200Z,17.60
2017-06-26T20:22:31.756Z,17.60
2017-06-26T20:24:59.284Z,17.60
2017-06-26T20:27:26.863Z,17.50
2017-06-26T20:29:54.351Z,17.40
2017-06-26T20:32:21.832Z,17.40
2017-06-26T20:34:49.415Z,17.30
2017-06-26T20:37:16.931Z,17.20
2017-06-26T20:39:44.422Z,17.10
2017-06-26T20:42:12.544Z,17.00
2017-06-26T20:44:40.055Z,17.00
2017-06-26T20:47:07.563Z,16.90
2017-06-26T20:49:35.095Z,16.90
2017-06-26T20:52:02.601Z,16.90
2017-06-26T20:54:30.139Z,17.00
2017-06-26T20:56:58.415Z,17.00
2017-06-26T20:59:26.699Z,17.00
2017-06-26T21:01:55.095Z,17.00
2017-06-26T21:04:22.597Z,17.00
2017-06-26T21:06:50.162Z,17.00
2017-06-26T21:09:17.690Z,16.90
2017-06-26T21:11:45.180Z,16.90
2017-06-26T21:14:12.667Z,16.90
2017-06-26T21:16:40.205Z,16.90
2017-06-26T21:19:07.700Z,16.80
2017-06-26T21:21:35.973Z,16.70
2017-06-26T21:24:03.599Z,16.70
2017-06-26T21:26:31.092Z,16.70
2017-06-26T21:28:58.603Z,16.70
2017-06-26T21:31:26.117Z,16.70
2017-06-26T21:33:53.615Z,16.70
2017-06-26T21:36:21.121Z,16.70
2017-06-26T21:38:48.666Z,16.70
2017-06-26T21:41:16.153Z,16.70
2017-06-26T21:43:43.671Z,16.80
2017-06-26T21:46:11.213Z,16.70
2017-06-26T21:48:38.704Z,16.70
2017-06-26T21:51:06.186Z,16.70
2017-06-26T21:53:33.770Z,16.60
2017-06-26T21:56:01.276Z,16.60
2017-06-26T21:58:28.772Z,16.60
2017-06-26T22:00:56.291Z,16.60
2017-06-26T22:03:23.822Z,16.50
2017-06-26T22:05:51.336Z,16.30
2017-06-26T22:08:19.626Z,16.10
2017-06-26T22:10:47.150Z,16.10
2017-06-26T22:13:14.621Z,16.10
2017-06-26T22:15:42.159Z,16.20
2017-06-26T22:18:09.663Z,16.00
2017-06-26T22:20:37.153Z,16.00
2017-06-26T22:23:04.707Z,15.90
2017-06-26T22:25:32.287Z,15.80
2017-06-26T22:27:59.822Z,15.90
2017-06-26T22:30:27.486Z,15.90
2017-06-26T22:32:54.974Z,16.00
2017-06-26T22:35:22.466Z,16.00
2017-06-26T22:37:50.264Z,15.90
2017-06-26T22:40:18.679Z,15.90
2017-06-26T22:42:46.163Z,15.80
2017-06-26T22:45:13.698Z,15.70
2017-06-26T22:47:41.200Z,15.70
2017-06-26T22:50:08.694Z,15.80
2017-06-26T22:52:36.201Z,15.70
2017-06-26T22:55:03.716Z,15.70
2017-06-26T22:57:31.235Z,15.60
2017-06-26T22:59:58.825Z,15.60
2017-06-26T23:02:26.333Z,15.60
2017-06-26T23:04:53.919Z,15.60
2017-06-26T23:07:21.439Z,15.50
2017-06-26T23:09:48.940Z,15.50
2017-06-26T23:12:16.500Z,15.50
2017-06-26T23:14:44.040Z,15.50
2017-06-26T23:17:11.538Z,15.50
2017-06-26T23:19:39.622Z,15.50
2017-06-26T23:22:07.149Z,15.50
2017-06-26T23:24:34.638Z,15.50
2017-06-26T23:27:02.150Z,15.40
2017-06-26T23:29:30.430Z,15.40
2017-06-26T23:31:57.934Z,15.30
2017-06-26T23:34:25.440Z,15.40
2017-06-26T23:36:53.048Z,15.30
2017-06-26T23:39:20.706Z,15.30
2017-06-26T23:41:48.212Z,15.10
2017-06-26T23:44:15.793Z,15.10
2017-06-26T23:46:43.293Z,15.00
2017-06-26T23:49:10.802Z,15.00
2017-06-26T23:51:38.349Z,14.90
2017-06-26T23:54:05.828Z,14.90
2017-06-26T23:56:33.466Z,14.80
2017-06-26T23:59:00.985Z,14.80
